Sauk Centre, MN (56378)

1:52 AM CDT on August 30, 2015 (GMT -0500)
Hoboken | | Change Station
CLOSE
Current Station
Personal Weather Station
Location: Sauk Centre, MN
Elevation: 1293 ft
Nearby Weather Stations

Elev 1293 ft 45.74 °N, 94.97 °W | Updated 9 minutes ago

Mostly Cloudy
Mostly Cloudy
61.3 °F
Feels Like 61.3 °F
N
0.0
Wind Variable Wind from NNW

Today
High -- | Low -- °F
--% Chance of Precip.
Yesterday
High -- | Low -- °F
Precip. -- in
6:38 AM 8:02 PM
Full, 100% visible
Pressure 29.96 in
Visibility 5.0 miles
Clouds Overcast 300 ft
Dew Point 61 °F
Humidity 99%
Rainfall 0.00 in
Snow Depth Not available.
UV 0 out of 12
Pollen 9.20 out of 12
Air Quality Not available.
Flu Activity Not available.
METAR KD39 300634Z AUTO 14003KT 5SM BR OVC003 16/16 A2996 RMK AO2 T01570156
Pressure 29.96 in
Visibility 5.0 miles
Clouds Overcast 300 ft
Dew Point 61 °F
Humidity 99%
Rainfall 0.00 in
Snow Depth Not available.
UV 0 out of 12
Pollen 9.20 out of 12
Air Quality Not available.
Flu Activity Not available.
METAR KD39 300634Z AUTO 14003KT 5SM BR OVC003 16/16 A2996 RMK AO2 T01570156

10-Day Weather Forecast

×

Almanac

Astronomy

Aug. 30, 2015 Rise Set
Actual Time
Civil Twilight
Nautical Twilight
Astronomical Twilight
Moon
Length of Visible Light
Length of Day
Tomorrow will be .
, % of the Moon is Illuminated

Today's Extremes

State Highs State Lows

Community

WunderPhotos

Upload Photos

1,850,904 photos uploaded!

WunderBlogs® & News

Nearby

Air Quality

  Air Quality AQ Index Pollutant
Not available.

Snow Depth

Station Depth Elevation

Earthquake Activity

City Distance Mag. Time & Date
Minimum magnitude displayed is 2.5.

Coastal Water Temperatures

Place Temperature

Stations

Nearby Weather Stations

Station Location Temp. Windchill Dew Point Humidity Wind Precip. Elev Updated Type